createdAt,value
2023-02-06T00:01:54.719Z,3.20
2023-02-06T00:04:25.437Z,3.20
2023-02-06T00:06:52.155Z,3.30
2023-02-06T00:09:20.940Z,3.20
2023-02-06T00:11:49.741Z,3.30
2023-02-06T00:14:21.002Z,3.20
2023-02-06T00:16:48.632Z,3.20
2023-02-06T00:19:43.961Z,3.10
2023-02-06T00:22:13.625Z,3.20
2023-02-06T00:24:43.734Z,3.10
2023-02-06T00:27:10.310Z,3.20
2023-02-06T00:29:40.078Z,3.10
2023-02-06T00:32:12.000Z,3.20
2023-02-06T00:34:41.837Z,3.20
2023-02-06T00:37:08.538Z,3.20
2023-02-06T00:40:07.323Z,3.20
2023-02-06T00:42:35.826Z,3.10
2023-02-06T00:45:54.135Z,3.10
2023-02-06T00:48:24.533Z,3.20
2023-02-06T00:50:53.417Z,3.10
2023-02-06T00:53:20.642Z,3.20
2023-02-06T00:55:49.856Z,3.20
2023-02-06T00:58:17.770Z,3.10
2023-02-06T01:00:45.363Z,3.10
2023-02-06T01:03:14.343Z,3.10
2023-02-06T01:05:44.562Z,3.10
2023-02-06T01:08:12.695Z,3.10
2023-02-06T01:10:45.836Z,3.20
2023-02-06T01:13:13.539Z,3.20
2023-02-06T01:15:41.086Z,3.20
2023-02-06T01:18:11.154Z,3.20
2023-02-06T01:20:41.826Z,3.20
2023-02-06T01:23:11.972Z,3.20
2023-02-06T01:25:43.156Z,3.20
2023-02-06T01:28:11.711Z,3.20
2023-02-06T01:30:50.151Z,3.20
2023-02-06T01:33:17.796Z,3.20
2023-02-06T01:35:44.594Z,3.20
2023-02-06T01:38:13.744Z,3.20
2023-02-06T01:40:43.783Z,3.20
2023-02-06T01:43:17.451Z,3.20
2023-02-06T01:46:13.813Z,3.20
2023-02-06T01:48:53.187Z,3.20
2023-02-06T01:51:25.263Z,3.20
2023-02-06T01:53:57.749Z,3.20
2023-02-06T01:56:33.199Z,3.20
2023-02-06T01:59:05.550Z,3.20
2023-02-06T02:02:01.984Z,3.20
2023-02-06T02:04:32.431Z,3.10
2023-02-06T02:07:24.326Z,3.10
2023-02-06T02:09:52.568Z,3.10
2023-02-06T02:12:20.825Z,3.10
2023-02-06T02:14:50.343Z,3.10
2023-02-06T02:17:57.372Z,3.10
2023-02-06T02:20:39.103Z,3.10
2023-02-06T02:23:53.623Z,3.10
2023-02-06T02:26:58.319Z,3.10
2023-02-06T02:29:30.192Z,3.10
2023-02-06T02:32:22.360Z,3.10
2023-02-06T02:35:20.621Z,3.10
2023-02-06T02:38:07.608Z,3.10
2023-02-06T02:41:10.617Z,3.10
2023-02-06T02:43:49.731Z,3.10
2023-02-06T02:46:27.303Z,3.00
2023-02-06T02:49:10.512Z,3.00
2023-02-06T02:51:40.730Z,2.90
2023-02-06T02:54:11.025Z,2.90
2023-02-06T02:56:39.233Z,2.90
2023-02-06T02:59:14.450Z,2.90
2023-02-06T03:02:19.332Z,2.90
2023-02-06T03:04:54.382Z,2.90
2023-02-06T03:07:52.348Z,3.00
2023-02-06T03:10:52.893Z,3.00
2023-02-06T03:14:09.179Z,3.00
2023-02-06T03:16:49.301Z,3.00
2023-02-06T03:19:50.873Z,3.00
2023-02-06T03:22:20.660Z,3.10
2023-02-06T03:24:52.674Z,3.00
2023-02-06T03:27:24.382Z,3.10
2023-02-06T03:29:54.102Z,3.10
2023-02-06T03:32:34.552Z,3.10
2023-02-06T03:35:15.790Z,3.00
2023-02-06T03:37:49.152Z,3.00
2023-02-06T03:40:18.399Z,3.00
2023-02-06T03:42:50.984Z,3.00
2023-02-06T03:45:30.318Z,3.00
2023-02-06T03:48:27.934Z,3.00
2023-02-06T03:51:01.879Z,2.90
2023-02-06T03:53:33.493Z,2.90
2023-02-06T03:56:13.353Z,2.90
2023-02-06T03:58:40.389Z,2.80
2023-02-06T04:01:13.443Z,2.80
2023-02-06T04:03:40.951Z,2.80
2023-02-06T04:06:08.648Z,2.80
2023-02-06T04:08:36.517Z,2.80
2023-02-06T04:11:05.525Z,2.70
2023-02-06T04:13:36.185Z,2.70
2023-02-06T04:16:08.614Z,2.70
2023-02-06T04:18:43.941Z,2.60
2023-02-06T04:21:14.964Z,2.60
2023-02-06T04:23:41.978Z,2.60
2023-02-06T04:26:10.288Z,2.70
2023-02-06T04:28:38.227Z,2.70
2023-02-06T04:31:06.111Z,2.70
2023-02-06T04:33:39.209Z,2.70
2023-02-06T04:36:39.094Z,2.70
2023-02-06T04:39:07.752Z,2.70
2023-02-06T04:41:38.009Z,2.80
2023-02-06T04:44:08.749Z,2.80
2023-02-06T04:47:04.789Z,2.80
2023-02-06T04:49:31.447Z,2.80
2023-02-06T04:52:02.085Z,2.80
2023-02-06T04:54:29.778Z,2.70
2023-02-06T04:56:59.082Z,2.80
2023-02-06T04:59:30.559Z,2.80
2023-02-06T05:01:59.316Z,2.80
2023-02-06T05:04:30.424Z,2.80
2023-02-06T05:06:57.154Z,2.80
2023-02-06T05:09:26.072Z,2.80
2023-02-06T05:11:55.322Z,2.80
2023-02-06T05:14:25.099Z,2.80
2023-02-06T05:16:54.953Z,2.70
2023-02-06T05:19:22.521Z,2.70
2023-02-06T05:21:49.307Z,2.70
2023-02-06T05:24:19.089Z,2.70
2023-02-06T05:26:46.741Z,2.80
2023-02-06T05:29:13.507Z,2.80
2023-02-06T05:31:40.337Z,2.80
2023-02-06T05:34:09.291Z,2.80
2023-02-06T05:36:39.760Z,2.70
2023-02-06T05:39:06.454Z,2.70
2023-02-06T05:41:33.227Z,2.80
2023-02-06T05:44:00.452Z,2.70
2023-02-06T05:46:31.552Z,2.70
2023-02-06T05:49:03.307Z,2.70
2023-02-06T05:51:32.866Z,2.70
2023-02-06T05:54:02.410Z,2.60
2023-02-06T05:56:31.336Z,2.60
2023-02-06T05:58:58.907Z,2.50
2023-02-06T06:01:28.446Z,2.60
2023-02-06T06:04:47.081Z,2.50
2023-02-06T06:07:18.731Z,2.60
2023-02-06T06:09:48.614Z,2.60
2023-02-06T06:12:15.234Z,2.60
2023-02-06T06:14:41.967Z,2.70
2023-02-06T06:17:08.950Z,2.60
2023-02-06T06:19:35.604Z,2.70
2023-02-06T06:22:02.290Z,2.70
2023-02-06T06:24:28.961Z,2.70
2023-02-06T06:26:55.629Z,2.70
2023-02-06T06:29:24.669Z,2.70
2023-02-06T06:31:55.567Z,2.70
2023-02-06T06:34:26.700Z,2.70
2023-02-06T06:36:53.729Z,2.70
2023-02-06T06:39:22.698Z,2.70
2023-02-06T06:41:53.567Z,2.70
2023-02-06T06:44:23.481Z,2.60
2023-02-06T06:46:52.292Z,2.60
2023-02-06T06:49:21.104Z,2.60
2023-02-06T06:51:52.479Z,2.50
2023-02-06T06:54:19.274Z,2.50
2023-02-06T06:56:53.801Z,2.50
2023-02-06T06:59:24.083Z,2.50
2023-02-06T07:01:55.380Z,2.50
2023-02-06T07:04:28.690Z,2.50
2023-02-06T07:06:59.377Z,2.60
2023-02-06T07:09:26.108Z,2.60
2023-02-06T07:12:17.859Z,2.70
2023-02-06T07:14:44.578Z,2.70
2023-02-06T07:17:15.789Z,2.80
2023-02-06T07:19:47.377Z,2.80
2023-02-06T07:22:42.854Z,2.80
2023-02-06T07:25:11.931Z,2.80
2023-02-06T07:33:59.351Z,2.70
2023-02-06T07:36:30.366Z,2.70
2023-02-06T07:38:57.880Z,2.70
2023-02-06T07:41:24.474Z,2.60
2023-02-06T07:43:54.281Z,2.60
2023-02-06T07:46:25.760Z,2.60
2023-02-06T07:48:52.809Z,2.70
2023-02-06T07:51:22.454Z,2.70
2023-02-06T07:53:51.372Z,2.70
2023-02-06T07:56:20.238Z,2.70
2023-02-06T07:58:52.795Z,2.80
2023-02-06T08:01:22.866Z,2.80
2023-02-06T08:03:53.284Z,2.80
2023-02-06T08:06:24.208Z,2.80
2023-02-06T08:08:56.411Z,2.70
2023-02-06T08:11:29.324Z,2.70
2023-02-06T08:14:00.283Z,2.70
2023-02-06T08:16:27.097Z,2.70
2023-02-06T08:18:53.820Z,2.80
2023-02-06T08:21:24.653Z,2.90
2023-02-06T08:23:59.924Z,2.90
2023-02-06T08:26:28.643Z,2.90
2023-02-06T08:28:58.156Z,3.00
2023-02-06T08:31:35.099Z,3.00
2023-02-06T08:34:05.345Z,3.00
2023-02-06T08:36:32.868Z,3.10
2023-02-06T08:39:00.718Z,3.20
2023-02-06T08:41:36.312Z,3.20
2023-02-06T08:44:05.539Z,3.20
2023-02-06T08:46:32.762Z,3.30
2023-02-06T08:49:05.833Z,3.40
2023-02-06T08:51:35.000Z,3.30
2023-02-06T08:54:36.004Z,3.30
2023-02-06T08:57:19.496Z,3.40
2023-02-06T08:59:48.939Z,3.40
2023-02-06T09:02:18.171Z,3.40
2023-02-06T09:04:48.484Z,3.50
2023-02-06T09:07:17.276Z,3.50
2023-02-06T09:09:44.022Z,3.60
2023-02-06T09:12:11.313Z,3.60
2023-02-06T09:14:40.535Z,3.70
2023-02-06T09:17:08.642Z,3.70
2023-02-06T09:19:37.989Z,3.70
2023-02-06T09:22:07.187Z,3.70
2023-02-06T09:24:43.123Z,3.70
2023-02-06T09:27:09.937Z,3.90
2023-02-06T09:29:40.275Z,4.00
2023-02-06T09:32:58.840Z,4.10
2023-02-06T09:35:33.201Z,4.20
2023-02-06T09:38:00.943Z,4.40
2023-02-06T09:40:32.212Z,4.60
2023-02-06T09:43:00.940Z,4.80
2023-02-06T09:45:29.397Z,5.10
2023-02-06T09:48:04.026Z,5.30
2023-02-06T09:51:01.981Z,5.50
2023-02-06T09:53:37.336Z,5.60
2023-02-06T09:56:32.148Z,5.70
2023-02-06T09:59:40.050Z,5.60
2023-02-06T10:02:17.749Z,5.60
2023-02-06T10:05:13.429Z,5.60
2023-02-06T10:08:01.247Z,5.50
2023-02-06T10:10:39.430Z,5.50
2023-02-06T10:13:41.673Z,5.60
2023-02-06T10:16:33.360Z,5.50
2023-02-06T10:19:20.702Z,5.50
2023-02-06T10:22:00.041Z,5.50
2023-02-06T10:24:39.018Z,5.60
2023-02-06T10:27:14.925Z,5.60
2023-02-06T10:29:45.953Z,5.60
2023-02-06T10:32:40.865Z,5.60
2023-02-06T10:35:22.877Z,5.50
2023-02-06T10:38:02.213Z,5.50
2023-02-06T10:40:47.756Z,5.40
2023-02-06T10:43:26.030Z,5.40
2023-02-06T10:46:48.651Z,5.40
2023-02-06T10:49:36.102Z,5.40
2023-02-06T10:52:27.909Z,5.40
2023-02-06T10:55:02.631Z,5.50
2023-02-06T10:57:34.016Z,5.40
2023-02-06T11:00:04.514Z,5.40
2023-02-06T11:02:47.486Z,5.50
2023-02-06T11:05:23.624Z,5.40
2023-02-06T11:08:15.444Z,5.40
2023-02-06T11:10:45.700Z,5.40
2023-02-06T11:13:34.307Z,5.40
2023-02-06T11:16:14.063Z,5.30
2023-02-06T11:18:48.834Z,5.30
2023-02-06T11:24:35.074Z,5.30
2023-02-06T11:27:12.031Z,5.20
2023-02-06T11:29:51.873Z,5.20
2023-02-06T11:32:58.869Z,5.20
2023-02-06T11:35:48.917Z,5.20
2023-02-06T11:38:20.299Z,5.10
2023-02-06T11:41:21.468Z,5.10
2023-02-06T11:43:50.636Z,5.00
2023-02-06T11:46:36.021Z,5.00
2023-02-06T11:49:25.083Z,4.90
2023-02-06T11:52:00.242Z,5.00
2023-02-06T11:54:38.733Z,5.00
2023-02-06T11:57:26.061Z,4.90
2023-02-06T11:59:57.084Z,4.90
2023-02-06T12:02:37.050Z,4.90
2023-02-06T12:05:29.784Z,4.90
2023-02-06T12:08:12.143Z,4.90
2023-02-06T12:11:12.357Z,4.80
2023-02-06T12:13:46.510Z,4.80
2023-02-06T12:16:15.941Z,4.80
2023-02-06T12:18:48.679Z,4.70
2023-02-06T12:21:26.223Z,4.80
2023-02-06T12:24:43.598Z,4.80
2023-02-06T12:27:34.413Z,4.80
2023-02-06T12:30:33.340Z,4.90
2023-02-06T12:33:11.916Z,4.90
2023-02-06T12:35:44.270Z,4.90
2023-02-06T12:38:30.662Z,4.90
2023-02-06T12:41:34.723Z,4.90
2023-02-06T12:44:05.276Z,4.90
2023-02-06T12:46:36.085Z,5.00
2023-02-06T12:49:54.247Z,5.00
2023-02-06T12:52:27.226Z,5.10
2023-02-06T12:55:05.560Z,5.10
2023-02-06T12:57:36.407Z,5.10
2023-02-06T13:00:04.685Z,5.00
2023-02-06T13:03:17.245Z,5.00
2023-02-06T13:06:11.980Z,5.00
2023-02-06T13:09:00.111Z,4.90
2023-02-06T13:11:39.980Z,4.90
2023-02-06T13:14:12.469Z,4.90
2023-02-06T13:16:45.278Z,4.90
2023-02-06T13:19:25.551Z,5.00
2023-02-06T13:22:20.519Z,5.00
2023-02-06T13:25:00.807Z,5.10
2023-02-06T13:27:40.090Z,5.20
2023-02-06T13:30:28.372Z,5.30
2023-02-06T13:33:19.459Z,5.40
2023-02-06T13:35:55.272Z,5.50
2023-02-06T13:38:38.858Z,5.50
2023-02-06T13:41:38.241Z,5.50
2023-02-06T13:44:29.978Z,5.50
2023-02-06T13:47:07.275Z,5.50
2023-02-06T13:50:04.708Z,5.50
2023-02-06T13:53:00.386Z,5.40
2023-02-06T13:55:53.282Z,5.40
2023-02-06T13:58:47.130Z,5.40
2023-02-06T14:01:20.042Z,5.50
2023-02-06T14:22:22.372Z,5.50
2023-02-06T14:25:28.419Z,5.50
2023-02-06T14:28:10.808Z,5.40
2023-02-06T14:30:59.484Z,5.50
2023-02-06T14:33:42.102Z,5.50
2023-02-06T14:36:52.510Z,5.50
2023-02-06T14:40:13.545Z,5.40
2023-02-06T14:42:46.734Z,5.30
2023-02-06T14:45:33.868Z,5.30
2023-02-06T14:48:29.086Z,5.30
2023-02-06T14:50:59.322Z,5.40
2023-02-06T14:53:37.341Z,5.40
2023-02-06T14:56:13.478Z,5.40
2023-02-06T14:58:45.559Z,5.40
2023-02-06T15:01:18.454Z,5.40
2023-02-06T15:03:46.721Z,5.40
2023-02-06T15:06:32.956Z,5.30
2023-02-06T15:09:00.624Z,5.30
2023-02-06T15:11:32.990Z,5.20
2023-02-06T15:14:23.459Z,5.20
2023-02-06T15:16:51.119Z,5.20
2023-02-06T15:19:24.543Z,5.20
2023-02-06T15:22:09.438Z,5.20
2023-02-06T15:25:03.835Z,5.20
2023-02-06T15:27:38.102Z,5.30
2023-02-06T15:30:38.342Z,5.30
2023-02-06T15:33:10.350Z,5.20
2023-02-06T15:35:47.718Z,5.20
2023-02-06T15:38:15.997Z,5.10
2023-02-06T15:40:48.514Z,5.00
2023-02-06T15:43:21.441Z,5.00
2023-02-06T15:45:50.444Z,4.90
2023-02-06T15:48:20.508Z,4.90
2023-02-06T15:51:17.083Z,4.80
2023-02-06T15:53:48.663Z,4.70
2023-02-06T15:56:31.033Z,4.70
2023-02-06T15:59:19.672Z,4.70
2023-02-06T16:01:47.518Z,4.70
2023-02-06T16:04:23.434Z,4.70
2023-02-06T16:07:19.155Z,4.70
2023-02-06T16:09:53.830Z,4.70
2023-02-06T16:12:24.397Z,4.70
2023-02-06T16:14:55.554Z,4.70
2023-02-06T16:17:39.322Z,4.70
2023-02-06T16:20:31.496Z,4.70
2023-02-06T16:23:17.617Z,4.70
2023-02-06T16:26:06.734Z,4.60
2023-02-06T16:28:56.141Z,4.60
2023-02-06T16:31:51.663Z,4.60
2023-02-06T16:34:38.286Z,4.60
2023-02-06T16:37:13.827Z,4.50
2023-02-06T16:39:41.831Z,4.50
2023-02-06T16:42:25.726Z,4.50
2023-02-06T16:44:58.698Z,4.40
2023-02-06T16:47:26.332Z,4.30
2023-02-06T16:49:59.635Z,4.30
2023-02-06T16:52:32.517Z,4.30
2023-02-06T16:55:03.042Z,4.30
2023-02-06T16:57:32.317Z,4.30
2023-02-06T17:00:01.438Z,4.30
2023-02-06T17:02:32.375Z,4.20
2023-02-06T17:05:01.428Z,4.20
2023-02-06T17:07:34.416Z,4.20
2023-02-06T17:10:09.160Z,4.20
2023-02-06T17:13:03.753Z,4.30
2023-02-06T17:15:31.720Z,4.30
2023-02-06T17:18:00.202Z,4.30
2023-02-06T17:20:34.980Z,4.20
2023-02-06T17:23:06.087Z,4.10
2023-02-06T17:25:33.148Z,4.10
2023-02-06T17:28:03.575Z,4.10
2023-02-06T17:30:30.625Z,4.00
2023-02-06T17:32:57.475Z,4.00
2023-02-06T17:35:24.590Z,4.00
2023-02-06T17:37:56.309Z,4.00
2023-02-06T17:40:28.886Z,4.00
2023-02-06T17:42:59.184Z,3.90
2023-02-06T17:45:26.595Z,3.90
2023-02-06T17:47:57.349Z,3.90
2023-02-06T17:50:27.272Z,3.90
2023-02-06T17:53:21.928Z,3.90
2023-02-06T17:55:55.350Z,3.90
2023-02-06T17:58:27.355Z,3.80
2023-02-06T18:00:56.274Z,3.80
2023-02-06T18:04:26.618Z,3.70
2023-02-06T18:06:58.575Z,3.70
2023-02-06T18:09:25.419Z,3.70
2023-02-06T18:12:23.929Z,3.60
2023-02-06T18:14:50.957Z,3.60
2023-02-06T18:17:23.848Z,3.50
2023-02-06T18:19:52.600Z,3.50
2023-02-06T18:22:49.891Z,3.50
2023-02-06T18:25:17.897Z,3.40
2023-02-06T18:27:50.345Z,3.40
2023-02-06T18:30:18.736Z,3.40
2023-02-06T18:32:49.329Z,3.30
2023-02-06T18:35:19.136Z,3.30
2023-02-06T18:37:46.294Z,3.20
2023-02-06T18:40:15.708Z,3.20
2023-02-06T18:43:09.879Z,3.20
2023-02-06T18:45:40.041Z,3.10
2023-02-06T18:51:10.238Z,3.10
2023-02-06T18:53:41.858Z,3.20
2023-02-06T18:57:01.154Z,3.20
2023-02-06T18:59:28.452Z,3.20
2023-02-06T19:01:55.464Z,3.20
2023-02-06T19:04:28.721Z,3.20
2023-02-06T19:06:56.808Z,3.30
2023-02-06T19:09:27.279Z,3.30
2023-02-06T19:11:54.043Z,3.30
2023-02-06T19:14:26.440Z,3.30
2023-02-06T19:16:57.726Z,3.40
2023-02-06T19:19:28.298Z,3.40
2023-02-06T19:21:55.823Z,3.40
2023-02-06T19:24:27.493Z,3.40
2023-02-06T19:26:58.132Z,3.30
2023-02-06T19:29:54.025Z,3.30
2023-02-06T19:32:21.740Z,3.30
2023-02-06T19:34:54.765Z,3.40
2023-02-06T19:37:22.838Z,3.40
2023-02-06T19:39:53.330Z,3.40
2023-02-06T19:42:20.134Z,3.30
2023-02-06T19:44:54.160Z,3.30
2023-02-06T19:47:28.530Z,3.30
2023-02-06T19:50:48.726Z,3.30
2023-02-06T19:53:17.004Z,3.30
2023-02-06T19:55:48.081Z,3.20
2023-02-06T19:58:18.737Z,3.20
2023-02-06T20:00:49.122Z,3.20
2023-02-06T20:03:16.370Z,3.20
2023-02-06T20:05:46.767Z,3.20
2023-02-06T20:08:13.795Z,3.10
2023-02-06T20:11:10.756Z,3.10
2023-02-06T20:13:40.059Z,3.10
2023-02-06T20:16:20.809Z,3.10
2023-02-06T20:18:47.600Z,3.10
2023-02-06T20:21:31.242Z,3.10
2023-02-06T20:24:01.182Z,3.10
2023-02-06T20:26:32.254Z,3.10
2023-02-06T20:28:59.447Z,3.00
2023-02-06T20:31:27.997Z,3.00
2023-02-06T20:33:56.907Z,3.00
2023-02-06T20:36:32.577Z,3.00
2023-02-06T20:39:26.197Z,3.00
2023-02-06T20:41:57.793Z,3.00
2023-02-06T20:45:15.866Z,3.00
2023-02-06T20:48:10.088Z,2.90
2023-02-06T20:50:38.609Z,2.90
2023-02-06T20:53:09.490Z,2.90
2023-02-06T20:55:41.198Z,2.90
2023-02-06T20:58:08.416Z,2.90
2023-02-06T21:00:35.325Z,2.90
2023-02-06T21:03:02.026Z,2.90
2023-02-06T21:05:32.627Z,2.80
2023-02-06T21:08:03.702Z,2.80
2023-02-06T21:10:34.655Z,2.80
2023-02-06T21:13:02.950Z,2.80
2023-02-06T21:15:59.412Z,2.80
2023-02-06T21:18:30.935Z,2.80
2023-02-06T21:21:12.709Z,2.80
2023-02-06T21:23:49.693Z,2.80
2023-02-06T21:26:17.548Z,2.80
2023-02-06T21:28:45.775Z,2.70
2023-02-06T21:31:40.426Z,2.70
2023-02-06T21:34:20.542Z,2.70
2023-02-06T21:36:50.608Z,2.70
2023-02-06T21:39:20.567Z,2.70
2023-02-06T21:41:53.906Z,2.70
2023-02-06T21:44:25.912Z,2.60
2023-02-06T21:47:21.224Z,2.60
2023-02-06T21:49:50.550Z,2.60
2023-02-06T21:52:20.667Z,2.60
2023-02-06T21:54:47.345Z,2.60
2023-02-06T21:57:20.171Z,2.60
2023-02-06T21:59:49.191Z,2.60
2023-02-06T22:02:18.930Z,2.50
2023-02-06T22:04:45.697Z,2.50
2023-02-06T22:07:17.455Z,2.50
2023-02-06T22:09:46.764Z,2.50
2023-02-06T22:12:16.572Z,2.50
2023-02-06T22:15:16.859Z,2.40
2023-02-06T22:17:44.952Z,2.50
2023-02-06T22:20:41.179Z,2.50
2023-02-06T22:23:14.147Z,2.50
2023-02-06T22:25:47.569Z,2.50
2023-02-06T22:28:14.307Z,2.40
2023-02-06T22:30:48.305Z,2.40
2023-02-06T22:33:16.030Z,2.40
2023-02-06T22:36:14.568Z,2.30
2023-02-06T22:38:47.668Z,2.20
2023-02-06T22:46:05.008Z,2.10
2023-02-06T22:48:33.247Z,2.10
2023-02-06T22:51:12.110Z,2.00
2023-02-06T22:53:40.270Z,1.90
2023-02-06T22:56:31.031Z,1.90
2023-02-06T22:59:26.384Z,1.90
2023-02-06T23:01:57.291Z,1.90
2023-02-06T23:04:34.035Z,1.90
2023-02-06T23:07:01.408Z,1.80
2023-02-06T23:09:32.293Z,1.80
2023-02-06T23:12:04.081Z,1.80
2023-02-06T23:14:34.665Z,1.70
2023-02-06T23:17:03.442Z,1.70
2023-02-06T23:19:31.767Z,1.60
2023-02-06T23:21:59.958Z,1.60
2023-02-06T23:24:27.673Z,1.50
2023-02-06T23:26:54.409Z,1.50
2023-02-06T23:29:23.147Z,1.50
2023-02-06T23:31:53.267Z,1.50
2023-02-06T23:34:23.874Z,1.50
2023-02-06T23:36:53.528Z,1.50
2023-02-06T23:39:23.857Z,1.40
2023-02-06T23:42:00.953Z,1.50
2023-02-06T23:44:29.962Z,1.50
2023-02-06T23:46:57.842Z,1.40
2023-02-06T23:49:29.925Z,1.40
2023-02-06T23:52:06.973Z,1.40
2023-02-06T23:54:39.716Z,1.40
2023-02-06T23:57:07.917Z,1.40
